Time;durP1;ratioP1;P1;durP2;ratioP2;P2;SDS_P1;SDS_P2;PMS_P1;PMS_P2;Temp;Humidity;BMP_temperature;BMP_pressure;BME280_temperature;BME280_humidity;BME280_pressure;Samples;Min_cycle;Max_cycle;Signal;HPM_P1;HPM_P2
2023/11/21 00:01:42;;;;;;;14.95;4.47;;;;;;;7.87;100.00;100666.38;6250336;28;20053;-71
2023/11/21 00:04:45;;;;;;;14.50;5.13;;;;;;;7.92;100.00;100669.66;6250313;28;20053;-71
2023/11/21 00:07:46;;;;;;;19.52;5.25;;;;;;;7.94;100.00;100669.56;6250180;28;20045;-71
2023/11/21 00:10:48;;;;;;;12.00;4.70;;;;;;;7.86;100.00;100665.53;6250814;28;20053;-71
2023/11/21 00:13:50;;;;;;;22.23;5.18;;;;;;;7.81;100.00;100671.84;6249766;28;20412;-71
2023/11/21 00:16:51;;;;;;;14.13;4.65;;;;;;;7.75;100.00;100670.38;6250455;28;20049;-71
2023/11/21 00:19:54;;;;;;;9.85;4.55;;;;;;;7.85;100.00;100671.66;6250119;28;20469;-71
2023/11/21 00:22:55;;;;;;;19.80;4.72;;;;;;;7.89;100.00;100681.09;6249758;28;20037;-71
2023/11/21 00:25:57;;;;;;;19.67;4.32;;;;;;;7.94;100.00;100680.03;6249946;28;20446;-71
2023/11/21 00:28:59;;;;;;;18.92;4.47;;;;;;;7.94;100.00;100682.66;6250344;28;20084;-71
2023/11/21 00:32:01;;;;;;;16.95;6.07;;;;;;;7.98;100.00;100694.69;6253447;28;20089;-71
2023/11/21 00:35:04;;;;;;;17.08;5.90;;;;;;;7.85;100.00;100695.22;6254649;28;20042;-71
2023/11/21 00:38:06;;;;;;;11.40;4.72;;;;;;;7.88;100.00;100689.84;6254958;28;20053;-71
2023/11/21 00:41:07;;;;;;;21.48;5.93;;;;;;;7.87;100.00;100701.25;6254523;28;20056;-72
2023/11/21 00:44:08;;;;;;;19.88;6.32;;;;;;;7.77;100.00;100696.47;6254464;28;20076;-71
2023/11/21 00:47:10;;;;;;;12.70;5.47;;;;;;;7.77;100.00;100697.31;6254598;28;20052;-71
2023/11/21 00:50:13;;;;;;;11.50;4.82;;;;;;;7.83;100.00;100691.81;6254644;28;20057;-71
2023/11/21 00:53:14;;;;;;;13.10;5.68;;;;;;;7.89;100.00;100696.78;6254243;28;20049;-71
2023/11/21 00:56:16;;;;;;;16.38;5.38;;;;;;;7.94;100.00;100699.19;6254128;28;20167;-70
2023/11/21 00:59:17;;;;;;;18.40;5.80;;;;;;;7.94;100.00;100698.34;6254189;28;20053;-72
2023/11/21 01:02:19;;;;;;;18.55;5.63;;;;;;;7.85;100.00;100699.59;6253697;28;20054;-71
2023/11/21 01:05:21;;;;;;;16.05;5.10;;;;;;;7.87;100.00;100708.25;6254115;28;20088;-71
2023/11/21 01:08:24;;;;;;;26.08;6.47;;;;;;;7.87;100.00;100701.25;6253735;28;20053;-71
2023/11/21 01:11:26;;;;;;;23.98;6.82;;;;;;;7.84;100.00;100703.13;6254093;28;20132;-71
2023/11/21 01:14:28;;;;;;;23.83;6.68;;;;;;;7.85;100.00;100710.91;6253534;28;20469;-71
2023/11/21 01:17:29;;;;;;;18.13;6.38;;;;;;;7.85;100.00;100710.06;6254068;28;20084;-71
2023/11/21 01:20:32;;;;;;;26.65;6.53;;;;;;;7.89;100.00;100716.88;6253671;28;20461;-71
2023/11/21 01:23:33;;;;;;;23.40;7.28;;;;;;;7.87;100.00;100719.56;6253644;28;20045;-71
2023/11/21 01:26:35;;;;;;;14.93;6.60;;;;;;;7.87;100.00;100716.09;6253607;28;20358;-72
2023/11/21 01:29:36;;;;;;;17.35;6.45;;;;;;;7.92;100.00;100721.97;6253792;28;20045;-71
2023/11/21 01:32:38;;;;;;;21.23;6.30;;;;;;;7.87;100.00;100727.41;6253163;28;20378;-71
2023/11/21 01:35:41;;;;;;;14.18;6.93;;;;;;;7.87;100.00;100722.16;6253519;28;20107;-71
2023/11/21 01:38:43;;;;;;;24.50;7.03;;;;;;;7.85;100.00;100721.38;6253325;28;20057;-71
2023/11/21 01:41:45;;;;;;;21.77;6.97;;;;;;;7.83;100.00;100724.97;6252950;28;20500;-71
2023/11/21 01:44:46;;;;;;;19.38;8.20;;;;;;;7.81;100.00;100732.91;6253064;28;20042;-69
2023/11/21 01:47:48;;;;;;;18.00;7.10;;;;;;;7.83;100.00;100728.44;6253162;28;20053;-72
2023/11/21 01:50:51;;;;;;;25.17;8.15;;;;;;;7.84;100.00;100724.91;6253338;28;20053;-71
2023/11/21 01:53:54;;;;;;;21.83;7.30;;;;;;;7.81;100.00;100729.41;6252814;28;20053;-71
2023/11/21 01:56:55;;;;;;;15.52;6.97;;;;;;;7.78;100.00;100727.78;6253127;28;20045;-71
2023/11/21 01:59:58;;;;;;;19.35;6.60;;;;;;;7.80;100.00;100728.56;6252808;28;20361;-69
2023/11/21 02:03:00;;;;;;;26.65;7.43;;;;;;;7.83;100.00;100736.28;6252557;28;20068;-69
2023/11/21 02:06:03;;;;;;;23.40;7.82;;;;;;;7.79;100.00;100737.34;6252711;28;20049;-70
2023/11/21 02:09:05;;;;;;;21.00;7.30;;;;;;;7.76;100.00;100741.84;6252638;28;20461;-70
2023/11/21 02:12:08;;;;;;;24.95;9.10;;;;;;;7.78;100.00;100738.25;6252507;28;20058;-70
2023/11/21 02:15:14;;;;;;;20.95;7.65;;;;;;;7.80;100.00;100744.25;6251977;28;20045;-70
2023/11/21 02:18:16;;;;;;;28.45;8.40;;;;;;;7.78;100.00;100734.78;6252661;28;20053;-70
2023/11/21 02:21:19;;;;;;;35.97;8.13;;;;;;;7.78;100.00;100740.88;6252345;28;20045;-70
2023/11/21 02:24:22;;;;;;;22.40;7.97;;;;;;;7.78;100.00;100740.03;6252245;28;20050;-69
2023/11/21 02:27:27;;;;;;;25.88;7.95;;;;;;;7.76;100.00;100740.06;6252243;28;20362;-70
2023/11/21 02:30:28;;;;;;;27.52;7.93;;;;;;;7.74;100.00;100744.53;6252304;28;20089;-70
2023/11/21 02:33:30;;;;;;;22.40;8.48;;;;;;;7.73;100.00;100745.44;6251889;28;20267;-70
2023/11/21 02:36:31;;;;;;;21.90;8.80;;;;;;;7.76;100.00;100750.53;6252077;28;20438;-71
2023/11/21 02:39:34;;;;;;;27.83;8.60;;;;;;;7.77;100.00;100759.25;6251884;28;20362;-71
2023/11/21 02:42:35;;;;;;;21.48;8.05;;;;;;;7.72;100.00;100751.59;6251809;28;20053;-71
2023/11/21 02:45:36;;;;;;;25.55;8.15;;;;;;;7.75;100.00;100761.06;6251661;28;20041;-71
2023/11/21 02:48:38;;;;;;;25.80;10.13;;;;;;;7.75;100.00;100761.06;6251768;28;20445;-71
2023/11/21 02:51:39;;;;;;;26.77;8.60;;;;;;;7.71;100.00;100757.72;6251826;28;20064;-71
2023/11/21 02:54:42;;;;;;;31.42;10.27;;;;;;;7.76;100.00;100765.38;6250761;28;20045;-71
2023/11/21 02:57:44;;;;;;;27.77;9.30;;;;;;;7.75;100.00;100766.31;6250785;28;20448;-70
2023/11/21 03:00:45;;;;;;;24.90;10.02;;;;;;;7.72;100.00;100766.41;6251188;28;20060;-70
2023/11/21 03:03:50;;;;;;;25.60;9.48;;;;;;;7.70;100.00;100769.09;6251224;28;20350;-71
2023/11/21 03:06:52;;;;;;;25.58;9.43;;;;;;;7.74;100.00;100773.31;6251132;28;20076;-71
2023/11/21 03:09:55;;;;;;;32.67;10.77;;;;;;;7.70;100.00;100778.72;6251490;28;20061;-71
2023/11/21 03:12:57;;;;;;;33.28;9.48;;;;;;;7.68;100.00;100780.56;6250666;28;20620;-71
2023/11/21 03:15:58;;;;;;;23.15;9.63;;;;;;;7.63;100.00;100786.84;6251356;28;20053;-71
2023/11/21 03:19:00;;;;;;;32.67;10.05;;;;;;;7.62;100.00;100781.63;6250986;28;20373;-71
2023/11/21 03:22:01;;;;;;;30.90;10.27;;;;;;;7.51;100.00;100784.69;6251070;28;20049;-71
2023/11/21 03:25:04;;;;;;;32.22;9.93;;;;;;;7.43;100.00;100783.31;6250190;28;20045;-72
2023/11/21 03:28:08;;;;;;;29.13;11.20;;;;;;;7.45;100.00;100784.94;6250886;28;20362;-72
2023/11/21 03:31:09;;;;;;;30.20;9.68;;;;;;;7.53;100.00;100785.47;6250772;28;20143;-72
2023/11/21 03:34:16;;;;;;;34.05;10.45;;;;;;;7.58;100.00;100787.91;6250805;28;20484;-71
2023/11/21 03:37:19;;;;;;;25.10;10.20;;;;;;;7.62;100.00;100787.72;6250689;28;20061;-72
2023/11/21 03:40:22;;;;;;;29.00;10.18;;;;;;;7.56;100.00;100801.06;6250895;28;20060;-71
2023/11/21 03:43:24;;;;;;;31.17;10.68;;;;;;;7.65;100.00;100807.69;6250399;28;20045;-71
2023/11/21 03:46:26;;;;;;;30.30;10.27;;;;;;;7.52;100.00;100802.09;6250839;28;20049;-71
2023/11/21 03:49:29;;;;;;;37.38;11.23;;;;;;;7.62;100.00;100805.19;6250419;28;20472;-71
2023/11/21 03:52:30;;;;;;;28.45;10.57;;;;;;;7.63;100.00;100807.75;6250144;28;20084;-71
2023/11/21 03:55:33;;;;;;;22.88;9.57;;;;;;;7.66;100.00;100817.22;6250613;28;20057;-71
2023/11/21 03:58:35;;;;;;;21.70;9.63;;;;;;;7.70;100.00;100820.56;6250415;28;20061;-72
2023/11/21 04:01:36;;;;;;;28.13;10.50;;;;;;;7.72;100.00;100821.34;6250552;28;20061;-71
2023/11/21 04:04:37;;;;;;;25.65;10.07;;;;;;;7.71;100.00;100822.28;6250173;28;20049;-71
2023/11/21 04:07:39;;;;;;;29.05;10.27;;;;;;;7.75;100.00;100824.69;6255109;28;20045;-71
2023/11/21 04:10:42;;;;;;;32.78;11.80;;;;;;;7.71;100.00;100830.13;6255385;28;20064;-71
2023/11/21 04:13:43;;;;;;;29.20;9.80;;;;;;;7.69;100.00;100832.81;6255114;28;20460;-71
2023/11/21 04:16:45;;;;;;;25.95;10.82;;;;;;;7.78;100.00;100834.19;6255378;28;20438;-71
2023/11/21 04:19:47;;;;;;;29.60;11.85;;;;;;;7.76;100.00;100842.09;6255278;28;20378;-70
2023/11/21 04:22:48;;;;;;;35.58;12.13;;;;;;;7.79;100.00;100844.59;6255030;28;20045;-71
2023/11/21 04:25:52;;;;;;;33.60;11.15;;;;;;;7.86;100.00;100855.69;6255095;28;20057;-71
2023/11/21 04:28:53;;;;;;;31.80;12.88;;;;;;;7.85;100.00;100854.81;6255214;28;20132;-71
2023/11/21 04:31:56;;;;;;;34.28;13.05;;;;;;;7.85;100.00;100857.41;6254914;28;20132;-71
2023/11/21 04:34:57;;;;;;;31.40;12.20;;;;;;;7.85;100.00;100860.03;6254825;28;20072;-72
2023/11/21 04:37:59;;;;;;;32.58;11.55;;;;;;;7.86;100.00;100864.38;6254531;28;20136;-71
2023/11/21 04:41:01;;;;;;;35.15;13.05;;;;;;;7.85;100.00;100861.81;6254892;28;20053;-71
2023/11/21 04:44:03;;;;;;;32.42;12.38;;;;;;;7.86;100.00;100867.00;6254409;28;20064;-71
2023/11/21 04:47:05;;;;;;;28.88;12.63;;;;;;;7.93;100.00;100871.97;6254815;28;20045;-71
2023/11/21 04:50:07;;;;;;;33.92;13.30;;;;;;;7.85;100.00;100875.72;6254526;28;20045;-70
2023/11/21 04:53:08;;;;;;;34.65;12.20;;;;;;;7.94;100.00;100878.91;6254419;28;20050;-71
2023/11/21 04:56:11;;;;;;;30.20;11.30;;;;;;;7.96;100.00;100883.16;6254353;28;20099;-71
2023/11/21 04:59:12;;;;;;;28.92;12.05;;;;;;;8.01;100.00;100891.69;6253688;28;20046;-71
2023/11/21 05:02:14;;;;;;;42.53;13.55;;;;;;;8.01;100.00;100890.84;6253928;28;20057;-71
2023/11/21 05:05:15;;;;;;;35.20;13.52;;;;;;;8.04;100.00;100888.06;6253917;28;20054;-71
2023/11/21 05:08:18;;;;;;;28.98;10.80;;;;;;;8.06;100.00;100887.13;6253920;28;20469;-71
2023/11/21 05:11:28;;;;;;;38.33;12.15;;;;;;;8.07;100.00;100895.81;6253993;28;20057;-71
2023/11/21 05:14:30;;;;;;;31.77;12.65;;;;;;;8.10;100.00;100896.53;6253662;28;20050;-71
2023/11/21 05:17:32;;;;;;;29.73;11.35;;;;;;;8.12;100.00;100899.94;6255692;28;20358;-70
2023/11/21 05:20:33;;;;;;;34.03;11.82;;;;;;;8.11;100.00;100903.47;6253815;28;20053;-70
2023/11/21 05:23:35;;;;;;;37.08;14.20;;;;;;;8.10;100.00;100917.47;6253462;28;20133;-70
2023/11/21 05:26:38;;;;;;;33.38;12.25;;;;;;;8.10;100.00;100914.88;6253595;28;20358;-70
2023/11/21 05:29:40;;;;;;;35.33;11.77;;;;;;;8.12;100.00;100915.63;6269259;28;20063;-70
2023/11/21 05:32:42;;;;;;;23.73;9.45;;;;;;;8.12;100.00;100928.72;6277962;28;20064;-70
2023/11/21 05:35:44;;;;;;;23.05;9.48;;;;;;;8.13;100.00;100922.59;6262171;28;20046;-69
2023/11/21 05:38:45;;;;;;;19.55;8.43;;;;;;;8.16;100.00;100932.09;6252915;28;20060;-70
2023/11/21 05:41:48;;;;;;;17.25;6.72;;;;;;;8.19;100.00;100926.72;6253290;28;20128;-71
2023/11/21 05:44:50;;;;;;;12.85;4.85;;;;;;;8.16;100.00;100937.31;6258063;28;20037;-71
2023/11/21 05:47:51;;;;;;;10.07;4.22;;;;;;;8.14;100.00;100942.63;6262729;28;20057;-70
2023/11/21 05:50:52;;;;;;;6.32;3.17;;;;;;;8.09;100.00;100951.59;6274501;28;20045;-72
2023/11/21 05:53:54;;;;;;;5.18;2.58;;;;;;;8.03;100.00;100962.28;6273597;28;20049;-70
2023/11/21 05:56:57;;;;;;;3.28;2.08;;;;;;;7.99;100.00;100965.91;6261194;28;20052;-70
2023/11/21 05:59:59;;;;;;;7.85;2.20;;;;;;;7.98;100.00;100970.31;6272013;28;20060;-69
2023/11/21 06:03:00;;;;;;;3.80;2.45;;;;;;;7.97;100.00;100979.06;6261177;28;20045;-69
2023/11/21 06:06:02;;;;;;;3.17;2.17;;;;;;;7.92;100.00;100985.41;6253675;28;20064;-70
2023/11/21 06:09:05;;;;;;;3.53;2.20;;;;;;;7.93;100.00;100989.72;6252479;28;20469;-70
2023/11/21 06:12:08;;;;;;;1.50;1.17;;;;;;;7.88;100.00;100988.13;6261398;28;20049;-70
2023/11/21 06:15:13;;;;;;;5.95;2.60;;;;;;;7.89;100.00;100997.69;6264270;28;20048;-71
2023/11/21 06:18:14;;;;;;;4.40;1.80;;;;;;;7.88;100.00;101009.06;6252052;28;20049;-70
2023/11/21 06:21:16;;;;;;;7.25;2.83;;;;;;;7.86;100.00;101017.91;6252228;28;20072;-71
2023/11/21 06:24:18;;;;;;;1.63;1.25;;;;;;;7.86;100.00;101023.97;6251842;28;20430;-70
2023/11/21 06:27:20;;;;;;;3.60;1.52;;;;;;;7.85;100.00;101040.56;6254629;28;20055;-71
2023/11/21 06:30:23;;;;;;;4.90;2.05;;;;;;;7.82;100.00;101048.56;6257355;28;20081;-71
2023/11/21 06:33:27;;;;;;;2.97;2.00;;;;;;;7.81;100.00;101049.47;6252032;28;20045;-71
2023/11/21 06:36:28;;;;;;;2.88;1.50;;;;;;;7.80;100.00;101057.34;6251684;28;20041;-71
2023/11/21 06:39:30;;;;;;;6.93;1.60;;;;;;;7.81;100.00;101064.28;6251954;28;20358;-71
2023/11/21 06:42:33;;;;;;;1.63;1.20;;;;;;;7.75;100.00;101067.97;6251573;28;20057;-71
2023/11/21 06:45:34;;;;;;;2.00;1.40;;;;;;;7.72;100.00;101080.31;6251845;28;20049;-71
2023/11/21 06:48:38;;;;;;;3.10;1.33;;;;;;;7.72;100.00;101089.03;6251744;28;20049;-71
2023/11/21 06:51:39;;;;;;;2.13;1.38;;;;;;;7.70;100.00;101090.84;6251373;28;20434;-70
2023/11/21 06:54:41;;;;;;;2.08;1.42;;;;;;;7.66;100.00;101093.63;6251239;28;20085;-70
2023/11/21 06:57:44;;;;;;;4.20;1.70;;;;;;;7.62;100.00;101105.94;6250906;28;20053;-71
2023/11/21 07:00:48;;;;;;;2.83;1.23;;;;;;;7.53;100.00;101114.13;6251201;28;20060;-70
2023/11/21 07:03:49;;;;;;;4.57;2.15;;;;;;;7.51;100.00;101116.81;6250734;28;20136;-71
2023/11/21 07:06:51;;;;;;;3.85;2.20;;;;;;;7.49;100.00;101121.22;6251191;28;20121;-70
2023/11/21 07:09:52;;;;;;;5.10;2.50;;;;;;;7.45;100.00;101127.47;6251221;28;20450;-70
2023/11/21 07:12:56;;;;;;;6.18;3.40;;;;;;;7.44;100.00;101130.97;6250948;28;20054;-70
2023/11/21 07:15:58;;;;;;;5.03;2.45;;;;;;;7.43;100.00;101139.75;6250904;28;20073;-70
2023/11/21 07:19:00;;;;;;;5.78;3.13;;;;;;;7.47;100.00;101150.94;6250963;28;20339;-70
2023/11/21 07:22:01;;;;;;;4.68;2.75;;;;;;;7.46;100.00;101147.50;6250641;28;20042;-69
2023/11/21 07:25:03;;;;;;;4.20;2.67;;;;;;;7.45;100.00;101157.97;6251082;28;20057;-69
2023/11/21 07:28:06;;;;;;;4.25;2.50;;;;;;;7.43;100.00;101165.03;6250750;28;20052;-70
2023/11/21 07:31:07;;;;;;;4.22;2.40;;;;;;;7.42;100.00;101165.94;6250728;28;20457;-69
2023/11/21 07:34:09;;;;;;;5.07;3.28;;;;;;;7.44;100.00;101171.97;6250714;28;20056;-69
2023/11/21 07:37:10;;;;;;;6.38;3.22;;;;;;;7.35;100.00;101179.19;6250383;28;20319;-70
2023/11/21 07:40:13;;;;;;;6.88;3.53;;;;;;;7.35;100.00;101184.44;6248584;28;20615;-69
2023/11/21 07:43:16;;;;;;;7.22;3.22;;;;;;;7.32;100.00;101196.78;6240791;28;20049;-70
2023/11/21 07:46:17;;;;;;;8.45;3.80;;;;;;;7.30;100.00;101198.56;6248755;28;20064;-69
2023/11/21 07:49:21;;;;;;;6.65;3.42;;;;;;;7.22;100.00;101195.34;6249176;28;20053;-70
2023/11/21 07:52:22;;;;;;;7.03;3.67;;;;;;;7.24;100.00;101197.00;6250137;28;20049;-70
2023/11/21 07:55:24;;;;;;;10.43;4.45;;;;;;;7.21;100.00;101211.94;6249912;28;20441;-70
2023/11/21 07:58:27;;;;;;;10.25;4.30;;;;;;;7.19;100.00;101208.53;6250712;28;20049;-70
2023/11/21 08:01:28;;;;;;;9.20;4.07;;;;;;;7.16;100.00;101206.84;6250457;28;20045;-70
2023/11/21 08:04:32;;;;;;;12.32;4.72;;;;;;;7.15;100.00;101212.13;6247244;28;20041;-69
2023/11/21 08:07:34;;;;;;;8.57;4.30;;;;;;;7.17;100.00;101218.16;6248415;28;20445;-69
2023/11/21 08:10:36;;;;;;;6.22;3.80;;;;;;;7.24;100.00;101217.06;6234974;28;20052;-71
2023/11/21 08:13:39;;;;;;;7.47;4.20;;;;;;;7.30;100.00;101220.34;6243130;28;20045;-69
2023/11/21 08:16:40;;;;;;;7.18;4.15;;;;;;;7.26;100.00;101231.78;6241648;28;20072;-71
2023/11/21 08:19:42;;;;;;;10.45;4.25;;;;;;;7.22;100.00;101232.81;6241372;28;20050;-72
2023/11/21 08:22:43;;;;;;;8.25;4.85;;;;;;;7.24;100.00;101243.22;6247040;28;20049;-72
2023/11/21 08:25:45;;;;;;;7.63;4.55;;;;;;;7.23;100.00;101242.38;6250102;28;20055;-72
2023/11/21 08:28:48;;;;;;;7.60;4.57;;;;;;;7.23;100.00;101249.34;6241131;28;20165;-71
2023/11/21 08:31:49;;;;;;;11.77;5.22;;;;;;;7.22;100.00;101247.63;6249751;28;20050;-70
2023/11/21 08:34:51;;;;;;;14.27;5.15;;;;;;;7.21;100.00;101261.59;6248979;28;20050;-71
2023/11/21 08:37:53;;;;;;;9.98;5.30;;;;;;;7.18;100.00;101264.31;6248178;28;20366;-70
2023/11/21 08:40:55;;;;;;;13.07;5.55;;;;;;;7.20;100.00;101275.56;6247610;28;20049;-72
2023/11/21 08:43:58;;;;;;;10.02;5.15;;;;;;;7.18;100.00;101277.41;6247014;28;20058;-72
2023/11/21 08:46:59;;;;;;;8.15;4.55;;;;;;;7.24;100.00;101272.81;6249340;28;20067;-71
2023/11/21 08:50:01;;;;;;;12.10;6.00;;;;;;;7.26;100.00;101289.31;6249129;28;20042;-71
2023/11/21 08:53:02;;;;;;;9.75;5.65;;;;;;;7.21;100.00;101290.34;6252781;28;20045;-71
2023/11/21 08:56:04;;;;;;;14.15;8.10;;;;;;;7.23;100.00;101302.50;6253841;28;20049;-71
2023/11/21 08:59:07;;;;;;;10.57;5.93;;;;;;;7.20;100.00;101301.72;6254297;28;20049;-71
2023/11/21 09:02:09;;;;;;;8.90;4.82;;;;;;;7.19;100.00;101305.25;6253943;28;20053;-71
2023/11/21 09:05:11;;;;;;;8.93;5.25;;;;;;;7.17;100.00;101312.25;6254035;28;20042;-71
2023/11/21 09:08:13;;;;;;;12.18;5.55;;;;;;;7.16;100.00;101311.41;6253768;28;20136;-71
2023/11/21 09:11:14;;;;;;;12.43;5.50;;;;;;;7.15;100.00;101322.75;6253674;28;20071;-71
2023/11/21 09:14:17;;;;;;;9.25;4.43;;;;;;;7.23;100.00;101328.63;6253255;28;20397;-69
2023/11/21 09:17:19;;;;;;;10.25;4.97;;;;;;;7.22;100.00;101332.16;6253580;28;20053;-71
2023/11/21 09:20:22;;;;;;;11.40;5.68;;;;;;;7.17;100.00;101341.00;6253591;28;20354;-70
2023/11/21 09:23:24;;;;;;;11.43;5.45;;;;;;;7.22;100.00;101341.72;6253515;28;20053;-71
2023/11/21 09:26:26;;;;;;;8.82;4.75;;;;;;;7.21;100.00;101350.47;6253879;28;20049;-71
2023/11/21 09:29:29;;;;;;;7.80;4.47;;;;;;;7.23;100.00;101351.31;6253549;28;20049;-69
2023/11/21 09:32:30;;;;;;;9.63;4.88;;;;;;;7.19;100.00;101367.97;6252330;28;20054;-69
2023/11/21 09:35:32;;;;;;;8.00;4.65;;;;;;;7.21;100.00;101371.38;6252518;28;20057;-71
2023/11/21 09:38:34;;;;;;;9.15;4.72;;;;;;;7.23;100.00;101375.69;6253130;28;20339;-72
2023/11/21 09:41:44;;;;;;;11.35;4.90;;;;;;;7.21;100.00;101384.44;6253277;28;20137;-71
2023/11/21 09:44:56;;;;;;;12.38;5.70;;;;;;;7.20;100.00;101393.19;6253185;28;20045;-71
2023/11/21 09:47:58;;;;;;;12.43;5.03;;;;;;;7.20;100.00;101396.66;6253294;28;20049;-71
2023/11/21 09:51:01;;;;;;;7.43;4.07;;;;;;;7.15;100.00;101395.09;6253243;28;20061;-70
2023/11/21 09:54:06;;;;;;;13.90;5.00;;;;;;;7.15;100.00;101406.41;6252869;28;20049;-71
2023/11/21 09:57:09;;;;;;;10.93;4.90;;;;;;;7.11;100.00;101410.84;6252860;28;20385;-71
2023/11/21 10:00:17;;;;;;;8.88;4.18;;;;;;;7.18;100.00;101421.16;6252978;28;20046;-71
2023/11/21 10:03:18;;;;;;;10.55;4.60;;;;;;;7.17;100.00;101412.44;6252502;28;20053;-71
2023/11/21 10:06:20;;;;;;;11.02;4.80;;;;;;;7.19;100.00;101425.47;6252585;28;20049;-71
2023/11/21 10:09:22;;;;;;;9.52;4.40;;;;;;;7.22;100.00;101428.88;6252662;28;20056;-71
2023/11/21 10:12:25;;;;;;;10.48;5.05;;;;;;;7.28;100.00;101431.28;6251999;28;20401;-71
2023/11/21 10:15:28;;;;;;;8.52;4.43;;;;;;;7.30;100.00;101437.31;6252528;28;20052;-72
2023/11/21 10:18:30;;;;;;;8.88;4.30;;;;;;;7.27;100.00;101442.66;6252532;28;20050;-71
2023/11/21 10:21:33;;;;;;;9.25;4.63;;;;;;;7.24;100.00;101442.75;6252373;28;20108;-71
2023/11/21 10:24:34;;;;;;;9.68;4.35;;;;;;;7.27;100.00;101453.13;6252388;28;20053;-72
2023/11/21 10:27:36;;;;;;;11.45;4.57;;;;;;;7.26;100.00;101448.75;6251945;28;20088;-71
2023/11/21 10:30:40;;;;;;;7.78;4.07;;;;;;;7.32;100.00;101451.22;6252339;28;20060;-71
2023/11/21 10:33:41;;;;;;;8.65;4.28;;;;;;;7.34;100.00;101454.63;6251934;28;20059;-71
2023/11/21 10:36:43;;;;;;;8.32;4.30;;;;;;;7.36;100.00;101459.84;6250789;28;20180;-70
2023/11/21 10:39:45;;;;;;;7.03;3.83;;;;;;;7.31;100.00;101457.38;6248352;28;20366;-71
2023/11/21 10:42:47;;;;;;;9.82;4.25;;;;;;;7.35;100.00;101453.72;6250169;28;20052;-71
2023/11/21 10:45:49;;;;;;;7.57;4.40;;;;;;;7.32;100.00;101464.31;6248265;28;20089;-71
2023/11/21 10:48:54;;;;;;;9.57;4.30;;;;;;;7.34;100.00;101465.09;6243692;28;20050;-72
2023/11/21 10:51:55;;;;;;;9.18;4.32;;;;;;;7.41;100.00;101462.34;6249866;28;20053;-71
2023/11/21 10:54:58;;;;;;;10.23;4.70;;;;;;;7.42;100.00;101461.41;6256865;28;20049;-72
2023/11/21 10:58:03;;;;;;;7.68;3.70;;;;;;;7.37;100.00;101457.19;6245846;28;20050;-71
2023/11/21 11:01:07;;;;;;;9.07;5.55;;;;;;;7.35;100.00;101473.78;6249887;28;20053;-71
2023/11/21 11:04:16;;;;;;;8.00;4.05;;;;;;;7.37;100.00;101467.63;6253636;28;20052;-71
2023/11/21 11:07:18;;;;;;;9.83;4.53;;;;;;;7.43;100.00;101469.22;6260599;28;20042;-71
2023/11/21 11:10:22;;;;;;;7.97;4.30;;;;;;;7.42;100.00;101482.34;6263040;28;20291;-71
2023/11/21 11:13:24;;;;;;;6.30;3.70;;;;;;;7.37;100.00;101487.69;6262641;28;20054;-71
2023/11/21 11:16:29;;;;;;;11.85;4.88;;;;;;;7.35;100.00;101495.56;6250616;28;20045;-71
2023/11/21 11:19:30;;;;;;;12.85;3.78;;;;;;;7.30;100.00;101496.59;6255385;28;20315;-72
2023/11/21 11:22:40;;;;;;;7.25;3.78;;;;;;;7.28;100.00;101504.50;6250326;28;20473;-71
2023/11/21 11:25:54;;;;;;;12.30;4.80;;;;;;;7.36;100.00;101505.16;6242961;28;20045;-71
2023/11/21 11:29:06;;;;;;;8.73;4.18;;;;;;;7.39;100.00;101501.56;6250756;28;20061;-71
2023/11/21 11:32:20;;;;;;;6.80;3.45;;;;;;;7.36;100.00;101499.91;6250368;28;20053;-71
2023/11/21 11:35:30;;;;;;;8.18;3.95;;;;;;;7.40;100.00;101499.81;6251005;28;20473;-72
2023/11/21 11:38:35;;;;;;;6.72;3.22;;;;;;;7.38;100.00;101500.72;6250404;28;20065;-71
2023/11/21 11:41:37;;;;;;;7.85;4.10;;;;;;;7.47;100.00;101502.22;6250594;28;20045;-71
2023/11/21 11:44:51;;;;;;;6.90;4.05;;;;;;;7.51;100.00;101506.47;6250425;28;20053;-71
2023/11/21 11:47:57;;;;;;;9.00;4.18;;;;;;;7.51;100.00;101511.69;6242675;28;20052;-71
2023/11/21 11:51:04;;;;;;;6.50;4.20;;;;;;;7.56;100.00;101515.03;6250382;28;20056;-72
2023/11/21 11:54:07;;;;;;;6.38;3.67;;;;;;;7.55;100.00;101517.72;6250129;28;20405;-71
2023/11/21 11:57:08;;;;;;;8.85;3.50;;;;;;;7.57;100.00;101514.13;6250232;28;20053;-71
2023/11/21 12:00:19;;;;;;;7.50;3.72;;;;;;;7.55;100.00;101515.94;6250421;28;20048;-72
2023/11/21 12:03:22;;;;;;;10.60;3.75;;;;;;;7.48;100.00;101527.47;6249980;28;20049;-72
2023/11/21 12:06:34;;;;;;;7.53;4.05;;;;;;;7.49;100.00;101523.94;6250694;28;20045;-71
2023/11/21 12:09:38;;;;;;;6.80;3.75;;;;;;;7.54;100.00;101534.28;6250281;28;20057;-70
2023/11/21 12:12:43;;;;;;;7.30;4.28;;;;;;;7.67;100.00;101532.19;6249558;28;20050;-71
2023/11/21 12:15:45;;;;;;;7.60;4.20;;;;;;;7.71;100.00;101539.91;6225737;28;20089;-70
2023/11/21 12:18:48;;;;;;;7.50;3.72;;;;;;;7.69;100.00;101533.00;6255802;28;20056;-70
2023/11/21 12:21:50;;;;;;;8.07;4.00;;;;;;;7.69;100.00;101541.72;6254996;28;20049;-71
2023/11/21 12:24:51;;;;;;;9.45;3.85;;;;;;;7.77;100.00;101550.19;6249643;28;20446;-71
2023/11/21 12:27:54;;;;;;;8.43;4.10;;;;;;;7.73;100.00;101542.50;6253350;28;20045;-71
2023/11/21 12:30:57;;;;;;;6.75;4.05;;;;;;;7.61;100.00;101541.91;6254845;28;20195;-71
2023/11/21 12:33:59;;;;;;;7.53;3.72;;;;;;;7.68;100.00;101558.31;6256923;28;20046;-70
2023/11/21 12:37:01;;;;;;;6.32;3.72;;;;;;;7.70;100.00;101553.88;6259863;28;20049;-72
2023/11/21 12:40:03;;;;;;;6.55;4.07;;;;;;;7.69;100.00;101562.63;6257433;28;20045;-71
2023/11/21 12:43:04;;;;;;;9.52;3.75;;;;;;;7.68;100.00;101563.53;6254310;28;20052;-70
2023/11/21 12:46:07;;;;;;;7.07;3.90;;;;;;;7.70;100.00;101559.13;6254525;28;20357;-70
2023/11/21 12:49:17;;;;;;;7.88;3.90;;;;;;;7.62;100.00;101563.69;6254599;28;20059;-70
2023/11/21 12:52:18;;;;;;;8.18;4.45;;;;;;;7.62;100.00;101572.41;6254233;28;20515;-72
2023/11/21 12:55:21;;;;;;;8.85;3.58;;;;;;;7.67;100.00;101584.50;6254359;28;20048;-71
2023/11/21 12:58:25;;;;;;;8.20;3.75;;;;;;;7.62;100.00;101595.94;6254295;28;20482;-71
2023/11/21 13:01:29;;;;;;;9.00;4.20;;;;;;;7.56;100.00;101608.34;6254197;28;20353;-71
2023/11/21 13:04:34;;;;;;;7.07;3.55;;;;;;;7.55;100.00;101604.88;6253889;28;20121;-71
2023/11/21 13:07:46;;;;;;;7.57;3.70;;;;;;;7.62;100.00;101609.03;6256617;28;20071;-71
2023/11/21 13:10:52;;;;;;;5.90;3.40;;;;;;;7.56;100.00;101614.44;6261999;28;20445;-70
2023/11/21 13:13:54;;;;;;;7.10;3.90;;;;;;;7.59;100.00;101613.50;6265806;28;20327;-71
2023/11/21 13:16:55;;;;;;;7.75;3.58;;;;;;;7.56;100.00;101616.19;6262414;28;20335;-71
2023/11/21 13:19:58;;;;;;;7.15;3.83;;;;;;;7.61;100.00;101616.91;6259413;28;20056;-71
2023/11/21 13:23:01;;;;;;;6.22;3.60;;;;;;;7.58;100.00;101617.00;6265729;28;20124;-71
2023/11/21 13:26:04;;;;;;;4.82;3.13;;;;;;;7.61;100.00;101614.31;6267523;28;20366;-71
2023/11/21 13:29:05;;;;;;;6.47;3.13;;;;;;;7.65;100.00;101608.09;6264270;28;20317;-71
2023/11/21 13:32:11;;;;;;;5.65;3.15;;;;;;;7.62;100.00;101616.88;6261348;28;20049;-72
2023/11/21 13:35:21;;;;;;;4.70;2.53;;;;;;;7.70;100.00;101619.28;6266007;28;20134;-72
2023/11/21 13:38:22;;;;;;;;;;;;;;;7.74;100.00;101631.38;6262044;28;20056;-72
2023/11/21 13:41:30;;;;;;;5.38;3.00;;;;;;;7.74;100.00;101635.75;6261878;28;19928;-71
2023/11/21 13:44:37;;;;;;;7.70;3.05;;;;;;;7.75;100.00;101632.25;6264218;28;20128;-71
2023/11/21 13:47:39;;;;;;;7.00;3.85;;;;;;;7.80;100.00;101640.81;6265398;28;20460;-71
2023/11/21 13:50:48;;;;;;;7.35;3.78;;;;;;;7.75;100.00;101647.94;6264382;28;20098;-70
2023/11/21 13:53:52;;;;;;;4.93;2.78;;;;;;;7.68;100.00;101656.88;6255063;28;20335;-71
2023/11/21 13:56:54;;;;;;;5.80;3.03;;;;;;;7.59;100.00;101666.66;6253034;28;20541;-72
2023/11/21 13:59:58;;;;;;;5.68;2.72;;;;;;;7.55;100.00;101666.78;6253150;28;20057;-71
2023/11/21 14:03:01;;;;;;;4.75;2.90;;;;;;;7.51;100.00;101667.78;6252539;28;20049;-71